Airfield :
LOGIN :

Register | Disclaimer

   EN    FR    IT 

 










Legend :    VFR   Marginal VFR   IFR   Intensive IFR   Very Intensive IFR
Visi :
Ceiling :
>= 8 km
>= 3000ft
5 to 8 km
1000 to 3000 ft
1500m to 5 km
500 to 1000 ft
800 to 1500m
200 to 500 ft
< 800m
< 200 ft
Symbols :   Thunderstorms  Fog  Heavy snow  Heavy precipitations  Wind > 20 kt
SIGMETs :     Misc.  Thunderstorms  Icing  Turbulence  Mountain Waves  Volcanic Ashes







- Airport Elevation : 600 ft
- IATA code : VIE


LOWW - Vienna Schwechat

CURRENT METAR :
  • 200550Z 15008KT 9999 RA FEW004 SCT028 BKN060 13/12 Q1002 TEMPO 4000 -RA BR BKN008

EXPIRED METARs :
  • 200520Z 13007KT 9000 RA FEW003 SCT038 BKN050 13/12 Q1002 TEMPO 4000 -RA BR BKN008
  • 200450Z 15008KT 8000 RA FEW008 BKN049 13/12 Q1002 NOSIG
  • 200420Z 12007KT 9999 RA FEW004 BKN063 13/12 Q1002 NOSIG
  • 200350Z 12007KT 7000 RA FEW022 BKN060 13/12 Q1002 NOSIG
  • 200320Z 13007KT 7000 RA FEW032 SCT036 BKN054 13/12 Q1002 TEMPO +SHRA

TAF TAF LOWW
Valid from the 20 at 06:00 until the 21 at 12:00 UTC


200515Z 2006/2112 15008KT 8000 RA FEW030 BKN050 TX18/2014Z TN10/2103Z
BECMG 2007/2009 9999 NSW FEW030 BKN080
PROB30
TEMPO 2012/2016 17018G28KT 4000 TSRA SCT010 BKN020 FEW030CB
BECMG 2016/2018 CAVOK
PROB30
TEMPO 2103/2106 5000 BR FEW004 SCT040
BECMG 2110/2112 23006KT
No reported NOTAMs for that airfield.



MET'MAP, your aeronautical weather chart ! - Copyright ORBIFLY December 2007 - Disclaimer

ORBIFLY MET'MAP TEAM :

Programming & Development : Alexandra Zaïnal
Concept & Development : Baudouin d'Aumeries
Co-Development & Prog : Marc-Olivier Méhu
Technical & hardware support : Manuel Goepfert

Contact : metmap@orbifly.com




SOURCES & CREDITS :

   NOAA